This is the latest recevied weather packets stored in our database for station/object HA3KE-10. If no packets are shown the sender has not sent any weather packets the latest 10 day(s).
| Time | Temp. | Humidity | Pressure | Rain* | Wind** | Luminosity | Snow |
|---|---|---|---|---|---|---|---|
| 1777610078 | 7.22° C | 40% | 1026.8 hPa | - | - | - | - |
| 1777609178 | 6.67° C | 41% | 1026.8 hPa | - | - | - | - |
| 1777608278 | 6.67° C | 41% | 1026.7 hPa | - | - | - | - |
| 1777607378 | 6.11° C | 42% | 1026.8 hPa | - | - | - | - |
| 1777606478 | 6.67° C | 40% | 1026.6 hPa | - | - | - | - |
| 1777605578 | 6.67° C | 39% | 1026.5 hPa | - | - | - | - |
| 1777604678 | 6.67° C | 39% | 1026.5 hPa | - | - | - | - |
| 1777603777 | 7.22° C | 38% | 1026.6 hPa | - | - | - | - |
| 1777602877 | 7.22° C | 39% | 1026.7 hPa | - | - | - | - |
| 1777601977 | 7.22° C | 39% | 1026.8 hPa | - | - | - | - |
| 1777601077 | 7.22° C | 38% | 1026.7 hPa | - | - | - | - |
| 1777600177 | 7.22° C | 38% | 1026.9 hPa | - | - | - | - |
| 1777585777 | 9.44° C | 35% | 1027 hPa | - | - | - | - |
| 1777583977 | 9.44° C | 34% | 1027 hPa | - | - | - | - |
| 1777583077 | 8.89° C | 36% | 1027 hPa | - | - | - | - |
| 1777581276 | 10° C | 35% | 1027 hPa | - | - | - | - |
| 1777580376 | 10.56° C | 35% | 1026.9 hPa | - | - | - | - |
| 1777579476 | 10.56° C | 35% | 1026.9 hPa | - | - | - | - |
| 1777578576 | 11.11° C | 34% | 1026.9 hPa | - | - | - | - |
| 1777576776 | 11.11° C | 33% | 1026.6 hPa | - | - | - | - |
| 1777575876 | 11.67° C | 31% | 1026.6 hPa | - | - | - | - |
| 1777574075 | 12.78° C | 29% | 1026.4 hPa | - | - | - | - |
| 1777570475 | 15.56° C | 27% | 1025.8 hPa | - | - | - | - |
| 1777569575 | 16.67° C | 26% | 1025.8 hPa | - | - | - | - |
| 1777568675 | 17.22° C | 26% | 1025.7 hPa | - | - | - | - |
* Rain since midnight (hover to see other rain measurements)
** Current wind speed in m/s (hover to see current wind gust speed)